sensor_id;sensor_type;location;lat;lon;timestamp;pressure;altitude;pressure_sealevel;temperature;humidity
27840;BME280;15207;42.182;24.308;2023-04-28T00:01:39;99432.56;;;11.35;50.66
27840;BME280;15207;42.182;24.308;2023-04-28T00:04:04;99439.38;;;11.28;51.08
27840;BME280;15207;42.182;24.308;2023-04-28T00:06:30;99434.03;;;11.28;51.50
27840;BME280;15207;42.182;24.308;2023-04-28T00:08:55;99429.16;;;11.21;52.09
27840;BME280;15207;42.182;24.308;2023-04-28T00:11:21;99433.91;;;11.18;52.33
27840;BME280;15207;42.182;24.308;2023-04-28T00:13:46;99432.94;;;11.07;52.01
27840;BME280;15207;42.182;24.308;2023-04-28T00:16:12;99432.31;;;11.04;51.83
27840;BME280;15207;42.182;24.308;2023-04-28T00:18:37;99431.69;;;11.11;51.56
27840;BME280;15207;42.182;24.308;2023-04-28T00:21:03;99432.47;;;11.02;51.18
27840;BME280;15207;42.182;24.308;2023-04-28T00:23:28;99435.09;;;10.91;50.78
27840;BME280;15207;42.182;24.308;2023-04-28T00:25:54;99437.66;;;10.81;50.89
27840;BME280;15207;42.182;24.308;2023-04-28T00:28:21;99436.41;;;10.74;50.66
27840;BME280;15207;42.182;24.308;2023-04-28T00:30:47;99433.59;;;10.52;49.91
27840;BME280;15207;42.182;24.308;2023-04-28T00:33:12;99439.84;;;10.40;50.12
27840;BME280;15207;42.182;24.308;2023-04-28T00:35:39;99443.50;;;10.39;50.00
27840;BME280;15207;42.182;24.308;2023-04-28T00:38:05;99440.66;;;10.29;50.51
27840;BME280;15207;42.182;24.308;2023-04-28T00:40:34;99445.41;;;10.25;50.95
27840;BME280;15207;42.182;24.308;2023-04-28T00:43:01;99441.03;;;10.24;51.12
27840;BME280;15207;42.182;24.308;2023-04-28T00:45:27;99440.63;;;10.17;50.79
27840;BME280;15207;42.182;24.308;2023-04-28T00:47:54;99440.13;;;10.12;51.31
27840;BME280;15207;42.182;24.308;2023-04-28T00:50:21;99436.59;;;10.12;51.05
27840;BME280;15207;42.182;24.308;2023-04-28T00:52:47;99436.72;;;10.10;51.14
27840;BME280;15207;42.182;24.308;2023-04-28T00:55:14;99440.97;;;10.13;51.82
27840;BME280;15207;42.182;24.308;2023-04-28T00:57:40;99440.69;;;10.04;51.04
27840;BME280;15207;42.182;24.308;2023-04-28T01:00:07;99443.84;;;9.98;51.72
27840;BME280;15207;42.182;24.308;2023-04-28T01:02:34;99440.72;;;9.80;51.95
27840;BME280;15207;42.182;24.308;2023-04-28T01:05:00;99437.09;;;9.68;52.10
27840;BME280;15207;42.182;24.308;2023-04-28T01:07:26;99441.19;;;9.61;52.03
27840;BME280;15207;42.182;24.308;2023-04-28T01:09:53;99443.66;;;9.64;51.68
27840;BME280;15207;42.182;24.308;2023-04-28T01:12:18;99441.06;;;9.62;51.65
27840;BME280;15207;42.182;24.308;2023-04-28T01:14:44;99444.25;;;9.68;51.35
27840;BME280;15207;42.182;24.308;2023-04-28T01:17:10;99453.00;;;9.83;51.20
27840;BME280;15207;42.182;24.308;2023-04-28T01:19:36;99446.91;;;10.05;51.43
27840;BME280;15207;42.182;24.308;2023-04-28T01:22:01;99442.97;;;9.98;50.28
27840;BME280;15207;42.182;24.308;2023-04-28T01:24:27;99455.78;;;9.81;50.53
27840;BME280;15207;42.182;24.308;2023-04-28T01:26:52;99448.09;;;9.76;50.12
27840;BME280;15207;42.182;24.308;2023-04-28T01:29:18;99452.81;;;9.73;49.85
27840;BME280;15207;42.182;24.308;2023-04-28T01:31:44;99441.59;;;9.68;49.68
27840;BME280;15207;42.182;24.308;2023-04-28T01:34:09;99436.41;;;9.53;49.82
27840;BME280;15207;42.182;24.308;2023-04-28T01:36:35;99446.72;;;9.46;49.89
27840;BME280;15207;42.182;24.308;2023-04-28T01:39:00;99445.53;;;9.37;49.97
27840;BME280;15207;42.182;24.308;2023-04-28T01:41:26;99449.00;;;9.26;50.46
27840;BME280;15207;42.182;24.308;2023-04-28T01:43:51;99434.69;;;9.15;50.99
27840;BME280;15207;42.182;24.308;2023-04-28T01:46:17;99444.41;;;9.03;51.37
27840;BME280;15207;42.182;24.308;2023-04-28T01:48:43;99441.63;;;8.78;52.11
27840;BME280;15207;42.182;24.308;2023-04-28T01:51:08;99442.16;;;8.70;52.45
27840;BME280;15207;42.182;24.308;2023-04-28T01:53:34;99439.09;;;8.64;52.29
27840;BME280;15207;42.182;24.308;2023-04-28T01:55:59;99431.94;;;8.37;52.62
27840;BME280;15207;42.182;24.308;2023-04-28T01:58:25;99434.53;;;8.38;52.98
27840;BME280;15207;42.182;24.308;2023-04-28T02:00:50;99441.03;;;8.34;52.08
27840;BME280;15207;42.182;24.308;2023-04-28T02:03:16;99438.16;;;8.50;51.87
27840;BME280;15207;42.182;24.308;2023-04-28T02:05:41;99438.06;;;8.52;51.63
27840;BME280;15207;42.182;24.308;2023-04-28T02:08:07;99447.41;;;8.31;52.10
27840;BME280;15207;42.182;24.308;2023-04-28T02:10:32;99441.56;;;8.39;52.01
27840;BME280;15207;42.182;24.308;2023-04-28T02:12:58;99445.34;;;8.63;51.65
27840;BME280;15207;42.182;24.308;2023-04-28T02:15:23;99441.00;;;8.62;51.18
27840;BME280;15207;42.182;24.308;2023-04-28T02:17:49;99437.78;;;8.69;51.06
27840;BME280;15207;42.182;24.308;2023-04-28T02:20:15;99454.78;;;8.68;51.16
27840;BME280;15207;42.182;24.308;2023-04-28T02:22:40;99453.91;;;8.55;51.42
27840;BME280;15207;42.182;24.308;2023-04-28T02:25:07;99453.91;;;8.55;52.11
27840;BME280;15207;42.182;24.308;2023-04-28T02:27:34;99451.72;;;8.47;52.32
27840;BME280;15207;42.182;24.308;2023-04-28T02:30:04;99461.75;;;8.43;52.29
27840;BME280;15207;42.182;24.308;2023-04-28T02:32:30;99463.97;;;8.37;52.58
27840;BME280;15207;42.182;24.308;2023-04-28T02:34:56;99463.84;;;8.25;52.79
27840;BME280;15207;42.182;24.308;2023-04-28T02:37:21;99459.94;;;8.31;52.77
27840;BME280;15207;42.182;24.308;2023-04-28T02:39:47;99464.31;;;8.32;52.71
27840;BME280;15207;42.182;24.308;2023-04-28T02:42:12;99462.44;;;8.19;52.61
27840;BME280;15207;42.182;24.308;2023-04-28T02:44:38;99468.84;;;8.17;52.64
27840;BME280;15207;42.182;24.308;2023-04-28T02:47:04;99472.66;;;8.13;53.38
27840;BME280;15207;42.182;24.308;2023-04-28T02:49:30;99473.56;;;8.26;53.14
27840;BME280;15207;42.182;24.308;2023-04-28T02:51:55;99475.50;;;8.24;52.82
27840;BME280;15207;42.182;24.308;2023-04-28T02:54:21;99477.00;;;8.28;52.34
27840;BME280;15207;42.182;24.308;2023-04-28T02:56:56;99471.75;;;8.27;52.05
27840;BME280;15207;42.182;24.308;2023-04-28T02:59:23;99479.53;;;8.30;51.95
27840;BME280;15207;42.182;24.308;2023-04-28T03:01:49;99475.94;;;8.31;52.37
27840;BME280;15207;42.182;24.308;2023-04-28T03:04:16;99484.69;;;8.33;52.10
27840;BME280;15207;42.182;24.308;2023-04-28T03:06:42;99482.75;;;8.35;51.79
27840;BME280;15207;42.182;24.308;2023-04-28T03:09:08;99483.72;;;8.34;51.95
27840;BME280;15207;42.182;24.308;2023-04-28T03:11:34;99490.47;;;8.40;51.18
27840;BME280;15207;42.182;24.308;2023-04-28T03:14:00;99497.47;;;8.28;51.88
27840;BME280;15207;42.182;24.308;2023-04-28T03:16:26;99498.81;;;8.20;51.85
27840;BME280;15207;42.182;24.308;2023-04-28T03:18:51;99502.91;;;8.26;52.28
27840;BME280;15207;42.182;24.308;2023-04-28T03:21:17;99504.84;;;8.24;52.66
27840;BME280;15207;42.182;24.308;2023-04-28T03:23:42;99504.63;;;8.27;52.69
27840;BME280;15207;42.182;24.308;2023-04-28T03:26:08;99509.25;;;8.38;53.19
27840;BME280;15207;42.182;24.308;2023-04-28T03:28:34;99505.06;;;8.34;53.43
27840;BME280;15207;42.182;24.308;2023-04-28T03:30:59;99516.16;;;8.28;53.80
27840;BME280;15207;42.182;24.308;2023-04-28T03:33:25;99525.13;;;8.27;55.10
27840;BME280;15207;42.182;24.308;2023-04-28T03:35:51;99527.34;;;8.20;55.03
27840;BME280;15207;42.182;24.308;2023-04-28T03:38:17;99530.84;;;8.20;56.02
27840;BME280;15207;42.182;24.308;2023-04-28T03:40:43;99535.72;;;8.28;55.57
27840;BME280;15207;42.182;24.308;2023-04-28T03:43:08;99532.16;;;8.28;55.30
27840;BME280;15207;42.182;24.308;2023-04-28T03:45:34;99544.25;;;8.33;55.04
27840;BME280;15207;42.182;24.308;2023-04-28T03:47:59;99535.25;;;8.22;54.80
27840;BME280;15207;42.182;24.308;2023-04-28T03:50:25;99535.47;;;8.04;54.38
27840;BME280;15207;42.182;24.308;2023-04-28T03:52:51;99546.38;;;8.01;54.52
27840;BME280;15207;42.182;24.308;2023-04-28T03:55:16;99548.22;;;7.71;54.07
27840;BME280;15207;42.182;24.308;2023-04-28T03:57:42;99548.22;;;7.71;54.82
27840;BME280;15207;42.182;24.308;2023-04-28T04:00:08;99545.28;;;7.61;55.11
27840;BME280;15207;42.182;24.308;2023-04-28T04:02:34;99549.09;;;7.57;54.76
27840;BME280;15207;42.182;24.308;2023-04-28T04:04:59;99557.75;;;7.61;54.56
27840;BME280;15207;42.182;24.308;2023-04-28T04:07:25;99556.13;;;7.73;54.98
27840;BME280;15207;42.182;24.308;2023-04-28T04:09:50;99561.13;;;7.92;54.62
27840;BME280;15207;42.182;24.308;2023-04-28T04:12:16;99566.03;;;8.13;54.60
27840;BME280;15207;42.182;24.308;2023-04-28T04:14:42;99567.38;;;8.20;54.63
27840;BME280;15207;42.182;24.308;2023-04-28T04:17:07;99571.66;;;8.23;55.43
27840;BME280;15207;42.182;24.308;2023-04-28T04:19:33;99573.13;;;8.41;54.82
27840;BME280;15207;42.182;24.308;2023-04-28T04:21:58;99576.97;;;8.65;55.10
27840;BME280;15207;42.182;24.308;2023-04-28T04:24:24;99573.47;;;8.90;54.86
27840;BME280;15207;42.182;24.308;2023-04-28T04:26:50;99585.06;;;9.17;53.53
27840;BME280;15207;42.182;24.308;2023-04-28T04:29:15;99577.69;;;9.46;52.83
27840;BME280;15207;42.182;24.308;2023-04-28T04:31:41;99571.16;;;9.50;51.50
27840;BME280;15207;42.182;24.308;2023-04-28T04:34:06;99588.44;;;9.84;51.23
27840;BME280;15207;42.182;24.308;2023-04-28T04:36:32;99593.22;;;10.04;50.45
27840;BME280;15207;42.182;24.308;2023-04-28T04:38:57;99591.31;;;10.31;49.40
27840;BME280;15207;42.182;24.308;2023-04-28T04:41:25;99596.41;;;10.71;47.71
27840;BME280;15207;42.182;24.308;2023-04-28T04:43:50;99599.56;;;11.01;46.40
27840;BME280;15207;42.182;24.308;2023-04-28T04:46:16;99599.84;;;11.09;46.13
27840;BME280;15207;42.182;24.308;2023-04-28T04:48:42;99599.03;;;11.32;46.41
27840;BME280;15207;42.182;24.308;2023-04-28T04:51:07;99605.88;;;11.59;46.76
27840;BME280;15207;42.182;24.308;2023-04-28T04:53:33;99608.38;;;11.85;46.02
27840;BME280;15207;42.182;24.308;2023-04-28T04:55:59;99600.19;;;12.09;45.36
27840;BME280;15207;42.182;24.308;2023-04-28T04:58:24;99609.69;;;12.25;44.67
27840;BME280;15207;42.182;24.308;2023-04-28T05:00:50;99612.97;;;12.28;44.97
27840;BME280;15207;42.182;24.308;2023-04-28T05:03:15;99604.09;;;12.61;44.31
27840;BME280;15207;42.182;24.308;2023-04-28T05:05:41;99613.28;;;12.79;43.11
27840;BME280;15207;42.182;24.308;2023-04-28T05:08:07;99616.56;;;12.94;43.04
27840;BME280;15207;42.182;24.308;2023-04-28T05:10:32;99605.03;;;13.04;42.63
27840;BME280;15207;42.182;24.308;2023-04-28T05:12:58;99616.09;;;13.32;42.36
27840;BME280;15207;42.182;24.308;2023-04-28T05:15:23;99614.66;;;13.49;41.79
27840;BME280;15207;42.182;24.308;2023-04-28T05:17:49;99611.78;;;13.41;41.01
27840;BME280;15207;42.182;24.308;2023-04-28T05:20:14;99620.97;;;13.38;41.11
27840;BME280;15207;42.182;24.308;2023-04-28T05:22:40;99617.53;;;13.36;40.44
27840;BME280;15207;42.182;24.308;2023-04-28T05:25:06;99624.06;;;13.55;41.25
27840;BME280;15207;42.182;24.308;2023-04-28T05:27:32;99614.41;;;13.52;40.40
27840;BME280;15207;42.182;24.308;2023-04-28T05:29:57;99619.81;;;13.52;40.72
27840;BME280;15207;42.182;24.308;2023-04-28T05:32:24;99619.06;;;13.50;40.91
27840;BME280;15207;42.182;24.308;2023-04-28T05:34:49;99623.75;;;13.79;40.26
27840;BME280;15207;42.182;24.308;2023-04-28T05:37:15;99614.59;;;13.92;39.67
27840;BME280;15207;42.182;24.308;2023-04-28T05:39:40;99610.16;;;13.81;40.40
27840;BME280;15207;42.182;24.308;2023-04-28T05:42:07;99620.66;;;13.84;40.28
27840;BME280;15207;42.182;24.308;2023-04-28T05:44:32;99620.06;;;13.80;40.07
27840;BME280;15207;42.182;24.308;2023-04-28T05:46:58;99620.31;;;13.98;39.74
27840;BME280;15207;42.182;24.308;2023-04-28T05:49:23;99622.06;;;14.19;39.96
27840;BME280;15207;42.182;24.308;2023-04-28T05:51:49;99625.06;;;14.26;39.92
27840;BME280;15207;42.182;24.308;2023-04-28T05:54:15;99626.84;;;14.15;40.04
27840;BME280;15207;42.182;24.308;2023-04-28T05:56:41;99625.09;;;14.36;39.29
27840;BME280;15207;42.182;24.308;2023-04-28T05:59:06;99625.78;;;14.38;39.37
27840;BME280;15207;42.182;24.308;2023-04-28T06:01:32;99629.06;;;14.41;38.54
27840;BME280;15207;42.182;24.308;2023-04-28T06:03:58;99628.38;;;14.59;38.59
27840;BME280;15207;42.182;24.308;2023-04-28T06:06:24;99627.16;;;14.83;38.47
27840;BME280;15207;42.182;24.308;2023-04-28T06:08:50;99628.53;;;14.67;38.26
27840;BME280;15207;42.182;24.308;2023-04-28T06:11:16;99631.16;;;14.89;38.54
27840;BME280;15207;42.182;24.308;2023-04-28T06:13:43;99627.88;;;14.95;37.70
27840;BME280;15207;42.182;24.308;2023-04-28T06:16:09;99628.72;;;14.96;38.07
27840;BME280;15207;42.182;24.308;2023-04-28T06:18:34;99617.78;;;15.27;36.88
27840;BME280;15207;42.182;24.308;2023-04-28T06:21:00;99625.72;;;15.28;36.71
27840;BME280;15207;42.182;24.308;2023-04-28T06:23:26;99630.66;;;15.53;35.89
27840;BME280;15207;42.182;24.308;2023-04-28T06:25:51;99618.00;;;15.53;36.31
27840;BME280;15207;42.182;24.308;2023-04-28T06:28:17;99617.66;;;15.66;36.15
27840;BME280;15207;42.182;24.308;2023-04-28T06:30:43;99623.97;;;15.57;34.88
27840;BME280;15207;42.182;24.308;2023-04-28T06:33:08;99621.63;;;15.82;35.56
27840;BME280;15207;42.182;24.308;2023-04-28T06:35:34;99623.59;;;15.90;34.68
27840;BME280;15207;42.182;24.308;2023-04-28T06:38:02;99635.66;;;15.85;35.29
27840;BME280;15207;42.182;24.308;2023-04-28T06:40:28;99626.81;;;16.03;34.69
27840;BME280;15207;42.182;24.308;2023-04-28T06:42:54;99630.69;;;16.19;33.87
27840;BME280;15207;42.182;24.308;2023-04-28T06:45:20;99627.41;;;15.97;33.91
27840;BME280;15207;42.182;24.308;2023-04-28T06:47:45;99630.66;;;16.00;34.94
27840;BME280;15207;42.182;24.308;2023-04-28T06:50:11;99630.63;;;16.10;33.45
27840;BME280;15207;42.182;24.308;2023-04-28T06:52:37;99632.25;;;16.21;33.88
27840;BME280;15207;42.182;24.308;2023-04-28T06:55:08;99635.75;;;16.60;34.05
27840;BME280;15207;42.182;24.308;2023-04-28T06:57:34;99628.09;;;16.55;32.44
27840;BME280;15207;42.182;24.308;2023-04-28T07:00:02;99621.94;;;16.63;32.80
27840;BME280;15207;42.182;24.308;2023-04-28T07:02:28;99633.94;;;16.50;32.10
27840;BME280;15207;42.182;24.308;2023-04-28T07:04:54;99630.31;;;16.60;31.55
27840;BME280;15207;42.182;24.308;2023-04-28T07:07:20;99631.97;;;16.71;32.32
27840;BME280;15207;42.182;24.308;2023-04-28T07:09:45;99637.63;;;16.77;33.89
27840;BME280;15207;42.182;24.308;2023-04-28T07:12:11;99638.91;;;16.55;32.24
27840;BME280;15207;42.182;24.308;2023-04-28T07:14:37;99642.44;;;16.56;32.68
27840;BME280;15207;42.182;24.308;2023-04-28T07:17:02;99646.16;;;16.55;32.26
27840;BME280;15207;42.182;24.308;2023-04-28T07:19:28;99641.47;;;16.57;32.95
27840;BME280;15207;42.182;24.308;2023-04-28T07:21:55;99640.47;;;16.58;32.54
27840;BME280;15207;42.182;24.308;2023-04-28T07:24:20;99643.75;;;16.51;34.25
27840;BME280;15207;42.182;24.308;2023-04-28T07:26:48;99633.66;;;16.53;31.76
27840;BME280;15207;42.182;24.308;2023-04-28T07:29:13;99647.28;;;16.62;32.11
27840;BME280;15207;42.182;24.308;2023-04-28T07:31:39;99639.56;;;16.67;30.81
27840;BME280;15207;42.182;24.308;2023-04-28T07:34:05;99646.75;;;16.30;31.07
27840;BME280;15207;42.182;24.308;2023-04-28T07:36:30;99637.53;;;16.69;31.96
27840;BME280;15207;42.182;24.308;2023-04-28T07:38:59;99634.03;;;17.05;31.27
27840;BME280;15207;42.182;24.308;2023-04-28T07:41:25;99627.50;;;17.16;30.39
27840;BME280;15207;42.182;24.308;2023-04-28T07:43:52;99623.25;;;17.13;31.00
27840;BME280;15207;42.182;24.308;2023-04-28T07:46:18;99627.19;;;17.01;29.79
27840;BME280;15207;42.182;24.308;2023-04-28T07:48:44;99622.31;;;16.86;31.81
27840;BME280;15207;42.182;24.308;2023-04-28T07:51:10;99614.28;;;17.57;30.67
27840;BME280;15207;42.182;24.308;2023-04-28T07:53:36;99615.25;;;17.83;31.21
27840;BME280;15207;42.182;24.308;2023-04-28T07:56:02;99612.25;;;17.94;29.74
27840;BME280;15207;42.182;24.308;2023-04-28T07:58:28;99606.56;;;18.06;29.21
27840;BME280;15207;42.182;24.308;2023-04-28T08:00:54;99607.97;;;18.10;29.56
27840;BME280;15207;42.182;24.308;2023-04-28T08:03:20;99609.84;;;17.83;29.45
27840;BME280;15207;42.182;24.308;2023-04-28T08:05:46;99599.19;;;18.16;28.41
27840;BME280;15207;42.182;24.308;2023-04-28T08:08:13;99600.91;;;17.56;28.99
27840;BME280;15207;42.182;24.308;2023-04-28T08:10:40;99598.63;;;17.78;30.26
27840;BME280;15207;42.182;24.308;2023-04-28T08:13:08;99588.34;;;18.24;29.42
27840;BME280;15207;42.182;24.308;2023-04-28T08:15:34;99593.56;;;17.75;29.18
27840;BME280;15207;42.182;24.308;2023-04-28T08:18:03;99591.22;;;18.15;29.59
27840;BME280;15207;42.182;24.308;2023-04-28T08:20:30;99587.97;;;18.62;28.77
27840;BME280;15207;42.182;24.308;2023-04-28T08:22:58;99587.41;;;18.42;28.34
27840;BME280;15207;42.182;24.308;2023-04-28T08:25:25;99586.72;;;18.48;28.10
27840;BME280;15207;42.182;24.308;2023-04-28T08:27:51;99581.50;;;18.72;27.88
27840;BME280;15207;42.182;24.308;2023-04-28T08:30:17;99583.22;;;18.89;27.57
27840;BME280;15207;42.182;24.308;2023-04-28T08:32:43;99580.03;;;19.11;27.47
27840;BME280;15207;42.182;24.308;2023-04-28T08:35:10;99575.97;;;19.07;27.95
27840;BME280;15207;42.182;24.308;2023-04-28T08:37:36;99572.69;;;18.53;28.21
27840;BME280;15207;42.182;24.308;2023-04-28T08:40:02;99573.50;;;18.02;29.05
27840;BME280;15207;42.182;24.308;2023-04-28T08:42:33;99574.56;;;18.61;27.74
27840;BME280;15207;42.182;24.308;2023-04-28T08:44:59;99568.63;;;18.90;27.30
27840;BME280;15207;42.182;24.308;2023-04-28T08:47:43;99564.06;;;18.66;27.06
27840;BME280;15207;42.182;24.308;2023-04-28T08:50:13;99567.84;;;18.14;29.13
27840;BME280;15207;42.182;24.308;2023-04-28T08:52:39;99570.94;;;18.35;28.42
27840;BME280;15207;42.182;24.308;2023-04-28T08:55:10;99575.84;;;17.89;27.91
27840;BME280;15207;42.182;24.308;2023-04-28T08:57:48;99566.44;;;17.40;29.49
27840;BME280;15207;42.182;24.308;2023-04-28T09:00:16;99563.59;;;17.76;28.75
27840;BME280;15207;42.182;24.308;2023-04-28T09:02:42;99556.97;;;17.70;29.43
27840;BME280;15207;42.182;24.308;2023-04-28T09:05:12;99560.53;;;18.14;29.11
27840;BME280;15207;42.182;24.308;2023-04-28T09:07:39;99552.84;;;18.69;28.57
27840;BME280;15207;42.182;24.308;2023-04-28T09:10:22;99549.31;;;19.19;28.24
27840;BME280;15207;42.182;24.308;2023-04-28T09:12:51;99544.56;;;19.21;27.96
27840;BME280;15207;42.182;24.308;2023-04-28T09:15:28;99542.06;;;19.67;27.96
27840;BME280;15207;42.182;24.308;2023-04-28T09:17:55;99546.50;;;19.68;27.55
27840;BME280;15207;42.182;24.308;2023-04-28T09:20:25;99535.63;;;19.60;26.93
27840;BME280;15207;42.182;24.308;2023-04-28T09:22:53;99541.78;;;19.46;28.32
27840;BME280;15207;42.182;24.308;2023-04-28T09:25:19;99535.00;;;19.50;27.89
27840;BME280;15207;42.182;24.308;2023-04-28T09:27:50;99534.75;;;19.68;27.73
27840;BME280;15207;42.182;24.308;2023-04-28T09:30:17;99533.09;;;19.59;27.08
27840;BME280;15207;42.182;24.308;2023-04-28T09:32:43;99543.84;;;19.35;25.97
27840;BME280;15207;42.182;24.308;2023-04-28T09:35:09;99527.41;;;19.37;26.79
27840;BME280;15207;42.182;24.308;2023-04-28T09:37:36;99527.16;;;19.63;25.00
27840;BME280;15207;42.182;24.308;2023-04-28T09:40:05;99526.09;;;19.16;25.96
27840;BME280;15207;42.182;24.308;2023-04-28T09:42:32;99526.75;;;18.60;26.63
27840;BME280;15207;42.182;24.308;2023-04-28T09:45:09;99518.94;;;18.40;27.69
27840;BME280;15207;42.182;24.308;2023-04-28T09:47:38;99515.06;;;18.43;28.09
27840;BME280;15207;42.182;24.308;2023-04-28T09:50:07;99514.91;;;18.61;27.63
27840;BME280;15207;42.182;24.308;2023-04-28T09:52:36;99496.19;;;18.24;27.88
27840;BME280;15207;42.182;24.308;2023-04-28T09:55:06;99505.78;;;18.02;28.46
27840;BME280;15207;42.182;24.308;2023-04-28T09:57:34;99501.47;;;18.26;29.26
27840;BME280;15207;42.182;24.308;2023-04-28T10:00:02;99491.47;;;18.27;28.09
27840;BME280;15207;42.182;24.308;2023-04-28T10:02:34;99494.69;;;18.47;27.62
27840;BME280;15207;42.182;24.308;2023-04-28T10:05:00;99497.28;;;18.65;27.79
27840;BME280;15207;42.182;24.308;2023-04-28T10:07:26;99493.19;;;18.36;26.84
27840;BME280;15207;42.182;24.308;2023-04-28T10:09:53;99484.53;;;18.57;27.06
27840;BME280;15207;42.182;24.308;2023-04-28T10:12:20;99488.06;;;18.16;27.26
27840;BME280;15207;42.182;24.308;2023-04-28T10:14:49;99476.31;;;17.13;28.61
27840;BME280;15207;42.182;24.308;2023-04-28T10:17:20;99476.69;;;17.26;27.74
27840;BME280;15207;42.182;24.308;2023-04-28T10:19:48;99470.31;;;17.70;27.55
27840;BME280;15207;42.182;24.308;2023-04-28T10:27:29;99469.09;;;18.91;26.75
27840;BME280;15207;42.182;24.308;2023-04-28T10:32:37;99464.09;;;19.36;26.74
27840;BME280;15207;42.182;24.308;2023-04-28T10:38:05;99451.56;;;19.27;26.22
27840;BME280;15207;42.182;24.308;2023-04-28T10:40:46;99452.41;;;19.36;26.74
27840;BME280;15207;42.182;24.308;2023-04-28T10:48:20;99446.41;;;19.80;26.26
27840;BME280;15207;42.182;24.308;2023-04-28T10:58:59;99429.97;;;18.60;25.88
27840;BME280;15207;42.182;24.308;2023-04-28T11:01:28;99427.22;;;18.94;26.14
27840;BME280;15207;42.182;24.308;2023-04-28T11:04:09;99423.16;;;18.89;25.36
27840;BME280;15207;42.182;24.308;2023-04-28T11:06:38;99418.66;;;19.22;26.69
27840;BME280;15207;42.182;24.308;2023-04-28T11:16:55;99417.06;;;20.07;24.98
27840;BME280;15207;42.182;24.308;2023-04-28T11:19:27;99412.09;;;20.34;24.84
27840;BME280;15207;42.182;24.308;2023-04-28T11:21:55;99412.38;;;20.40;25.02
27840;BME280;15207;42.182;24.308;2023-04-28T11:24:25;99412.53;;;20.23;25.04
27840;BME280;15207;42.182;24.308;2023-04-28T11:26:52;99405.88;;;20.26;25.58
27840;BME280;15207;42.182;24.308;2023-04-28T11:29:30;99403.53;;;20.22;24.46
27840;BME280;15207;42.182;24.308;2023-04-28T11:31:58;99398.34;;;20.13;25.00
27840;BME280;15207;42.182;24.308;2023-04-28T11:34:25;99397.16;;;20.30;24.37
27840;BME280;15207;42.182;24.308;2023-04-28T11:36:51;99396.59;;;20.43;25.61
27840;BME280;15207;42.182;24.308;2023-04-28T11:39:28;99391.41;;;20.87;25.55
27840;BME280;15207;42.182;24.308;2023-04-28T11:41:55;99395.47;;;21.06;24.78
27840;BME280;15207;42.182;24.308;2023-04-28T11:44:25;99389.03;;;21.29;24.58
27840;BME280;15207;42.182;24.308;2023-04-28T11:49:22;99378.41;;;20.74;23.76
27840;BME280;15207;42.182;24.308;2023-04-28T11:51:56;99379.47;;;20.34;24.48
27840;BME280;15207;42.182;24.308;2023-04-28T11:54:26;99375.91;;;20.34;24.74
27840;BME280;15207;42.182;24.308;2023-04-28T11:56:55;99364.19;;;19.87;24.45
27840;BME280;15207;42.182;24.308;2023-04-28T11:59:27;99367.38;;;19.67;25.13
27840;BME280;15207;42.182;24.308;2023-04-28T12:01:56;99362.25;;;19.72;25.92
27840;BME280;15207;42.182;24.308;2023-04-28T12:04:33;99361.72;;;19.77;25.40
27840;BME280;15207;42.182;24.308;2023-04-28T12:07:14;99361.19;;;19.18;26.42
27840;BME280;15207;42.182;24.308;2023-04-28T12:09:48;99363.47;;;18.89;26.21
27840;BME280;15207;42.182;24.308;2023-04-28T12:12:26;99353.53;;;18.65;26.80
27840;BME280;15207;42.182;24.308;2023-04-28T12:15:03;99346.00;;;18.84;26.33
27840;BME280;15207;42.182;24.308;2023-04-28T12:17:37;99338.34;;;18.96;26.35
27840;BME280;15207;42.182;24.308;2023-04-28T12:20:08;99338.28;;;19.21;26.11
27840;BME280;15207;42.182;24.308;2023-04-28T12:22:49;99343.31;;;18.84;26.09
27840;BME280;15207;42.182;24.308;2023-04-28T12:25:17;99339.19;;;19.05;26.15
27840;BME280;15207;42.182;24.308;2023-04-28T12:28:04;99335.66;;;19.36;24.83
27840;BME280;15207;42.182;24.308;2023-04-28T12:30:31;99325.41;;;19.14;24.80
27840;BME280;15207;42.182;24.308;2023-04-28T12:32:58;99324.97;;;19.34;25.53
27840;BME280;15207;42.182;24.308;2023-04-28T12:35:27;99321.34;;;19.74;25.77
27840;BME280;15207;42.182;24.308;2023-04-28T12:37:55;99312.69;;;19.93;25.93
27840;BME280;15207;42.182;24.308;2023-04-28T12:40:22;99312.81;;;20.00;26.04
27840;BME280;15207;42.182;24.308;2023-04-28T12:42:50;99309.88;;;20.10;25.22
27840;BME280;15207;42.182;24.308;2023-04-28T12:45:16;99302.47;;;19.95;25.25
27840;BME280;15207;42.182;24.308;2023-04-28T12:47:42;99301.31;;;19.98;26.16
27840;BME280;15207;42.182;24.308;2023-04-28T12:50:08;99299.75;;;19.95;25.64
27840;BME280;15207;42.182;24.308;2023-04-28T12:52:34;99291.31;;;19.90;27.05
27840;BME280;15207;42.182;24.308;2023-04-28T12:55:03;99286.69;;;19.99;27.81
27840;BME280;15207;42.182;24.308;2023-04-28T12:57:29;99280.09;;;19.93;26.14
27840;BME280;15207;42.182;24.308;2023-04-28T12:59:56;99280.53;;;19.59;25.73
27840;BME280;15207;42.182;24.308;2023-04-28T13:02:22;99287.75;;;19.90;25.85
27840;BME280;15207;42.182;24.308;2023-04-28T13:04:48;99278.19;;;19.55;26.08
27840;BME280;15207;42.182;24.308;2023-04-28T13:07:16;99282.19;;;19.60;26.36
27840;BME280;15207;42.182;24.308;2023-04-28T13:09:42;99284.25;;;19.34;25.94
27840;BME280;15207;42.182;24.308;2023-04-28T13:12:08;99284.13;;;19.27;26.46
27840;BME280;15207;42.182;24.308;2023-04-28T13:14:34;99275.00;;;18.80;26.19
27840;BME280;15207;42.182;24.308;2023-04-28T13:17:00;99265.50;;;18.76;26.99
27840;BME280;15207;42.182;24.308;2023-04-28T13:19:29;99261.19;;;19.07;27.63
27840;BME280;15207;42.182;24.308;2023-04-28T13:21:56;99256.03;;;19.67;26.57
27840;BME280;15207;42.182;24.308;2023-04-28T13:24:23;99244.75;;;19.55;25.71
27840;BME280;15207;42.182;24.308;2023-04-28T13:26:51;99249.28;;;19.39;25.45